Web Počasí Slunečno.cz™ (Podmínky, ePrivacy) používá cookies a personalizace pro reklamní účely. Pohybem po stránce vyjadřujete souhlas. Odejít

Aktuální počasí v Česku a ve světě - METAR

Seznam meteostanic umístěných nejčasteji na letišti v ČR a ve světě

Vyhledat místa podle abecedy:
A B C D E F G H I J K L M N O P Q R S T U V W X Y Z

Filtrovat:

ID stanice:
a/nebo
Název místa (fulltext):
 
Místo (ID)Naposledy načteno 
Brussels (EBBR) 26.10.2021 13:50 UTC Zobrazit METAR
EBBR 261350Z 23011KT 9999 FEW021 SCT028 14/10 Q1021 NOSIG
Bucharest (LRBS) 26.10.2021 14:00 UTC Zobrazit METAR
LRBS 261400Z 10006KT 060V130 9999 BKN038 13/04 Q1026 NOSIG
Budapest (LHBP) 26.10.2021 14:00 UTC Zobrazit METAR
LHBP 261400Z 16005KT 130V210 CAVOK 13/01 Q1023 NOSIG
Buenos Aires (SABE) 26.10.2021 14:00 UTC Zobrazit METAR
SABE 261400Z 36004KT 320V050 CAVOK 24/17 Q1014 NOSIG
Bujumbura (HBBA) 25.10.2021 05:00 UTC Zobrazit METAR
HBBA 250500Z 21002KT 7000 TSRA FEW025 BKN100 17/16 Q1014 NOSIG
Burgas (LBBG) 26.10.2021 14:00 UTC Zobrazit METAR
LBBG 261400Z 09011KT 9999 FEW040 14/06 Q1025 NOSIG
Bydgoszcz (EPBY) 26.10.2021 14:00 UTC Zobrazit METAR
EPBY 261400Z 24006KT 9999 SCT016 BKN019 10/07 Q1018
Cairo (HECA) 26.10.2021 14:00 UTC Zobrazit METAR
HECA 261400Z 03012KT CAVOK 27/15 Q1014 NOSIG
Canberra (YSCB) 26.10.2021 14:00 UTC Zobrazit METAR
YSCB 261400Z AUTO 15002KT 9999 // SCT015 08/07 Q1020
Caracas (SVMP) Zatím nenačteno  
Cayenne (SOCA) 26.10.2021 14:00 UTC Zobrazit METAR
SOCA 261400Z AUTO 09009KT 060V130 9999 BKN026 BKN035 BKN042 31/26 Q1013 TEMPO 3000 SHRA BKN018TCU
Charlotte Amalie (TIST) 26.10.2021 13:53 UTC Zobrazit METAR
TIST 261353Z 13010KT 10SM SCT028 29/22 A3005 RMK AO2 SLP175 T02940222
Chisinau (LUKK) 26.10.2021 14:00 UTC Zobrazit METAR
LUKK 261400Z 20012KT CAVOK 13/01 Q1027 R26/CLRD// NOSIG
Colombo (VCBI) 26.10.2021 12:10 UTC Zobrazit METAR
VCBI 261210Z 02004KT 320V060 9000 -SHRA BKN017 27/23 Q1009 NOSIG
Conakry (GUCY) 26.10.2021 14:00 UTC Zobrazit METAR
GUCY 261400Z 20006KT 9999 SCT015 SCT110 28/24 Q1011 NOSIG
Constanta (LRCK) 26.10.2021 14:00 UTC Zobrazit METAR
LRCK 261400Z 09004KT 9999 BKN035 12/05 Q1027 NOSIG
Constantine (DABC) 26.10.2021 14:00 UTC Zobrazit METAR
DABC 261400Z 36005KT 9999 FEW020 SCT026 20/10 Q1020
Copenhagen (EKCH) 26.10.2021 12:50 UTC Zobrazit METAR
EKCH 261250Z AUTO 26013KT 9999 FEW022/// FEW030/// SCT064/// BKN098/// 13/08 Q1014 TEMPO FEW020CB
Cork (EICK) 26.10.2021 14:00 UTC Zobrazit METAR
EICK 261400Z 21019KT 9999 BKN009 15/13 Q1011 NOSIG
Cotonou (DBBB) 26.10.2021 12:00 UTC Zobrazit METAR
DBBB 261200Z 13005KT 070V180 9999 SCT012 30/24 Q1013 NOSIG
Curacao Island (TNCC) 26.10.2021 14:00 UTC Zobrazit METAR
TNCC 261400Z 10017KT 9999 SCT020 30/25 Q1014 NOSIG
Dakar (GOOY) 26.10.2021 14:00 UTC Zobrazit METAR
GOOY 261400Z 28004KT 9999 FEW013 31/25 Q1011
Damascus (OSDI) 26.10.2021 14:00 UTC Zobrazit METAR
OSDI 261400Z 18004KT CAVOK 27/01 Q1015
Debrecen (LHDC) 25.10.2021 13:45 UTC Zobrazit METAR
LHDC 251345Z AUTO VRB02KT CAVOK 15/M00 Q1028 NOSIG
Delhi (VIDP) 26.10.2021 14:00 UTC Zobrazit METAR
VIDP 261400Z 25003KT 3500 HZ NSC 24/14 Q1014 NOSIG
Dhaka (VGZR) Zatím nenačteno  
Diego Garcia (FJDG) 26.10.2021 13:55 UTC Zobrazit METAR
FJDG 261355Z 14008KT 9999 FEW020 SCT080 BKN220 28/25 A2986 RMK SLP108 T02760254
Djibouti (HDAM) 01.10.2021 13:00 UTC Zobrazit METAR
HDAM 011300Z 07009KT 9999 FEW023 36/22 Q1003
Dnipropetrovs'k (UKDD) 12.08.2013 14:00 UTC Zobrazit METAR
UKDD 121400Z CAVOK 33/13 Q1012 08090070 NOSIG
Dodoma (HTDO) 26.10.2021 14:00 UTC Zobrazit METAR
HTDO 261400Z 11010KT 9999 FEW029 BKN090 29/13 Q1018 NOSIG
Doha (OTBD) 26.10.2021 14:00 UTC Zobrazit METAR
OTBD 261400Z 33012KT CAVOK 31/10 Q1013 NOSIG
Dortmund (EDLW) 26.10.2021 13:50 UTC Zobrazit METAR
EDLW 261350Z 23011KT 9999 SCT028 14/09 Q1020
Dresden (EDDC) 26.10.2021 13:50 UTC Zobrazit METAR
EDDC 261350Z 25006KT 220V290 9999 SCT025 BKN035 13/08 Q1021 NOSIG
Dublin (EIDW) 26.10.2021 14:00 UTC Zobrazit METAR
EIDW 261400Z 22016G32KT 190V260 9999 FEW010 SCT023 BKN170 17/12 Q1007 WS RWY28L NOSIG
Dubrovnik (LDDU) 26.10.2021 14:00 UTC Zobrazit METAR
LDDU 261400Z 28009KT 240V300 9999 FEW030 18/10 Q1019 NOSIG
Dushanbe (UTDD) Zatím nenačteno  
Dusseldorf (EDDL) 26.10.2021 13:50 UTC Zobrazit METAR
EDDL 261350Z 23013KT 9999 FEW020 BKN030 15/10 Q1021 NOSIG
Dzaoudzi (FMCZ) 26.10.2021 14:00 UTC Zobrazit METAR
FMCZ 261400Z AUTO 32008KT 9999 OVC018 29/23 Q1015 NOSIG
Edinburgh (EGPH) 26.10.2021 13:50 UTC Zobrazit METAR
EGPH 261350Z 22017KT 6000 -SHRA BKN019 15/13 Q1003
Eindhoven (EHEH) 26.10.2021 13:55 UTC Zobrazit METAR
EHEH 261355Z AUTO 23014KT 190V260 9999 FEW024 SCT032 OVC390 15/09 Q1020 BLU NOSIG
Entebbe (HUEN) 24.10.2021 06:00 UTC Zobrazit METAR
HUEN 240600Z 00000KT CAVOK 24/20 Q1018
Esbjerg (EKEB) 26.10.2021 12:50 UTC Zobrazit METAR
EKEB 261250Z AUTO 24008KT 9999 FEW028/// 12/09 Q1014
Faro (LPFR) 26.10.2021 14:00 UTC Zobrazit METAR
LPFR 261400Z 11008KT 9999 FEW030 23/12 Q1018
Florence (LIRQ) 26.10.2021 13:50 UTC Zobrazit METAR
LIRQ 261350Z 09007KT 030V120 CAVOK 20/09 Q1018
Foggia, Gino Lisa (LIBF) 26.10.2021 13:50 UTC Zobrazit METAR
LIBF 261350Z 04006KT 9999 FEW030 SCT060 19/08 Q1019
Fort de France (TFFF) 26.10.2021 14:00 UTC Zobrazit METAR
TFFF 261400Z AUTO 11013KT 9999 BKN032 BKN039 30/23 Q1017 NOSIG
Frankfurt/ Main (EDDF) 26.10.2021 13:50 UTC Zobrazit METAR
EDDF 261350Z 22011KT 9999 FEW032 16/08 Q1022 NOSIG
Freetown (GFLL) 19.10.2021 20:00 UTC Zobrazit METAR
GFLL 192000Z 33006KT 9999 BKN012 29/24 Q1010
Funafuti (NGFU) 25.10.2021 21:00 UTC Zobrazit METAR
NGFU 252100Z 04005KT 9999 FEW020 OVC100 28/23 Q1013
Gaborone (FBSK) 26.10.2021 14:00 UTC Zobrazit METAR
FBSK 261400Z 06008KT 9999 FEW030 29/12 Q1018 NOSIG
Předchozí 1 2 3 4 5 ... 9 Další
Reklama

Reklama


Newslettter

Počasí na Váš email

Každý den Vám pošleme předpověď
Emaily chodí ráno a bez reklamy



Odhlásit newsletter


Další české internetové stránky o počasí najdete v katalogu TOPlist - weby o počasí nebo vyhledejte na internetu, co jste tu na Počasí Slunečno Slunečnu zatím nenašli:
Reklama